createdAt,value
2023-03-15T00:02:09.781Z,17.17
2023-03-15T00:06:11.990Z,17.19
2023-03-15T00:10:13.732Z,17.20
2023-03-15T00:14:15.839Z,17.20
2023-03-15T00:18:19.651Z,17.22
2023-03-15T00:22:23.390Z,17.23
2023-03-15T00:26:25.234Z,17.22
2023-03-15T00:30:27.479Z,17.22
2023-03-15T00:34:29.168Z,17.23
2023-03-15T00:43:05.809Z,17.24
2023-03-15T00:47:07.636Z,17.20
2023-03-15T00:51:15.085Z,17.18
2023-03-15T00:55:19.932Z,17.16
2023-03-15T00:59:23.271Z,17.16
2023-03-15T01:03:25.087Z,17.15
2023-03-15T01:07:26.908Z,17.13
2023-03-15T01:11:28.692Z,17.12
2023-03-15T01:15:31.373Z,17.12
2023-03-15T01:19:33.913Z,17.11
2023-03-15T01:23:35.776Z,17.11
2023-03-15T01:27:37.583Z,17.11
2023-03-15T01:31:39.844Z,17.11
2023-03-15T01:35:41.679Z,17.12
2023-03-15T01:39:43.630Z,17.12
2023-03-15T01:43:47.491Z,17.13
2023-03-15T01:47:50.214Z,17.12
2023-03-15T01:51:58.101Z,17.13
2023-03-15T01:56:04.316Z,17.13
2023-03-15T02:00:14.000Z,17.12
2023-03-15T02:04:48.948Z,17.11
2023-03-15T02:09:15.163Z,17.11
2023-03-15T02:13:22.894Z,17.11
2023-03-15T02:17:33.494Z,17.11
2023-03-15T02:22:01.996Z,17.10
2023-03-15T02:26:29.849Z,17.08
2023-03-15T02:30:34.066Z,17.06
2023-03-15T02:34:37.796Z,17.04
2023-03-15T02:38:39.535Z,17.01
2023-03-15T02:42:42.596Z,16.99
2023-03-15T02:46:46.836Z,16.95
2023-03-15T02:50:48.619Z,16.93
2023-03-15T02:54:50.447Z,16.91
2023-03-15T02:58:52.237Z,16.90
2023-03-15T03:02:54.642Z,16.89
2023-03-15T03:06:56.377Z,16.88
2023-03-15T03:11:04.444Z,16.85
2023-03-15T03:15:07.551Z,16.84
2023-03-15T03:19:15.248Z,16.82
2023-03-15T03:23:18.368Z,16.81
2023-03-15T03:27:20.065Z,16.79
2023-03-15T03:31:25.337Z,16.76
2023-03-15T03:35:28.529Z,16.75
2023-03-15T03:39:31.061Z,16.72
2023-03-15T03:43:35.735Z,16.71
2023-03-15T03:47:37.771Z,16.69
2023-03-15T03:51:39.577Z,16.68
2023-03-15T03:55:42.823Z,16.67
2023-03-15T03:59:44.910Z,16.65
2023-03-15T04:03:46.776Z,16.64
2023-03-15T04:07:51.695Z,16.62
2023-03-15T04:11:54.019Z,16.60
2023-03-15T04:15:57.897Z,16.59
2023-03-15T04:20:07.336Z,16.58
2023-03-15T04:24:11.963Z,16.57
2023-03-15T04:28:32.968Z,16.55
2023-03-15T04:32:44.931Z,16.54
2023-03-15T04:36:58.470Z,16.53
2023-03-15T04:41:27.108Z,16.52
2023-03-15T04:45:37.125Z,16.51
2023-03-15T04:49:56.285Z,16.49
2023-03-15T04:54:16.698Z,16.48
2023-03-15T04:58:31.333Z,16.46
2023-03-15T05:03:08.386Z,16.45
2023-03-15T05:07:34.481Z,16.45
2023-03-15T05:11:47.739Z,16.43
2023-03-15T05:16:09.056Z,16.41
2023-03-15T05:20:35.592Z,16.40
2023-03-15T05:24:55.816Z,16.40
2023-03-15T05:29:24.419Z,16.39
2023-03-15T05:33:49.022Z,16.37
2023-03-15T05:38:27.029Z,16.36
2023-03-15T05:42:47.672Z,16.35
2023-03-15T05:46:58.356Z,16.35
2023-03-15T05:51:29.465Z,16.34
2023-03-15T05:55:49.033Z,16.32
2023-03-15T06:00:06.933Z,16.31
2023-03-15T06:04:26.258Z,16.31
2023-03-15T06:08:30.525Z,16.30
2023-03-15T06:12:32.376Z,16.30
2023-03-15T06:16:34.833Z,16.28
2023-03-15T06:20:38.779Z,16.28
2023-03-15T06:24:45.015Z,16.26
2023-03-15T06:28:48.570Z,16.26
2023-03-15T06:32:51.182Z,16.26
2023-03-15T06:36:54.214Z,16.25
2023-03-15T06:40:56.474Z,16.24
2023-03-15T06:44:58.776Z,16.22
2023-03-15T06:49:01.196Z,16.22
2023-03-15T06:53:03.060Z,16.21
2023-03-15T06:57:04.968Z,16.21
2023-03-15T07:01:06.779Z,16.20
2023-03-15T07:05:09.180Z,16.20
2023-03-15T07:09:10.906Z,16.19
2023-03-15T07:13:13.383Z,16.18
2023-03-15T07:17:15.611Z,16.17
2023-03-15T07:21:17.411Z,16.17
2023-03-15T07:25:24.034Z,16.17
2023-03-15T07:29:25.924Z,16.16
2023-03-15T07:33:29.632Z,16.15
2023-03-15T07:37:31.448Z,16.15
2023-03-15T07:41:33.301Z,16.14
2023-03-15T07:45:50.206Z,16.14
2023-03-15T07:49:51.977Z,16.13
2023-03-15T07:53:53.790Z,16.13
2023-03-15T07:57:55.530Z,16.13
2023-03-15T08:01:57.280Z,16.11
2023-03-15T08:05:59.081Z,16.11
2023-03-15T08:10:01.795Z,16.11
2023-03-15T08:14:03.537Z,16.11
2023-03-15T08:18:06.558Z,16.10
2023-03-15T08:22:08.380Z,16.09
2023-03-15T08:26:10.113Z,16.10
2023-03-15T08:30:14.167Z,16.09
2023-03-15T08:34:16.310Z,16.09
2023-03-15T08:38:18.097Z,16.09
2023-03-15T08:42:20.013Z,16.08
2023-03-15T08:46:22.273Z,16.07
2023-03-15T08:50:25.855Z,16.08
2023-03-15T08:54:27.698Z,16.07
2023-03-15T08:58:29.540Z,16.07
2023-03-15T09:02:31.278Z,16.06
2023-03-15T09:06:33.054Z,16.07
2023-03-15T09:10:34.873Z,16.06
2023-03-15T09:14:36.760Z,16.06
2023-03-15T09:18:40.652Z,16.05
2023-03-15T09:22:51.829Z,16.05
2023-03-15T09:26:53.649Z,16.05
2023-03-15T09:30:55.388Z,16.04
2023-03-15T09:34:57.390Z,16.04
2023-03-15T09:38:59.555Z,16.05
2023-03-15T09:43:07.055Z,16.03
2023-03-15T09:47:36.925Z,16.03
2023-03-15T09:52:02.900Z,16.03
2023-03-15T09:56:18.867Z,16.03
2023-03-15T10:00:25.981Z,16.02
2023-03-15T10:04:30.864Z,16.02
2023-03-15T10:08:32.804Z,16.02
2023-03-15T10:12:41.524Z,16.03
2023-03-15T10:16:46.938Z,16.02
2023-03-15T10:20:58.998Z,16.02
2023-03-15T10:25:12.019Z,16.01
2023-03-15T10:29:25.747Z,16.00
2023-03-15T10:33:37.513Z,16.00
2023-03-15T10:37:39.269Z,16.00
2023-03-15T10:41:47.437Z,16.00
2023-03-15T10:46:00.638Z,15.99
2023-03-15T10:50:02.388Z,15.99
2023-03-15T10:54:25.103Z,15.98
2023-03-15T10:58:31.579Z,15.99
2023-03-15T11:02:33.484Z,15.99
2023-03-15T11:07:00.778Z,16.02
2023-03-15T11:11:02.548Z,16.04
2023-03-15T11:15:16.263Z,16.06
2023-03-15T11:19:22.305Z,16.07
2023-03-15T11:23:28.967Z,16.05
2023-03-15T11:27:31.960Z,16.07
2023-03-15T11:31:34.273Z,16.07
2023-03-15T11:35:44.520Z,16.09
2023-03-15T11:40:11.585Z,16.12
2023-03-15T11:44:33.792Z,16.16
2023-03-15T11:48:44.391Z,16.18
2023-03-15T11:52:52.977Z,16.18
2023-03-15T11:57:03.503Z,16.18
2023-03-15T12:01:07.254Z,16.17
2023-03-15T12:05:46.858Z,16.15
2023-03-15T12:09:56.369Z,16.15
2023-03-15T12:14:01.132Z,16.13
2023-03-15T12:18:07.021Z,16.13
2023-03-15T12:22:17.578Z,16.11
2023-03-15T12:26:26.550Z,16.11
2023-03-15T12:30:38.569Z,16.11
2023-03-15T12:35:09.034Z,16.10
2023-03-15T12:39:16.643Z,16.10
2023-03-15T12:43:35.614Z,16.08
2023-03-15T12:47:52.427Z,16.08
2023-03-15T12:52:04.772Z,16.07
2023-03-15T12:56:18.716Z,16.07
2023-03-15T13:00:27.538Z,16.06
2023-03-15T13:04:31.029Z,16.05
2023-03-15T13:09:06.821Z,16.06
2023-03-15T13:13:30.236Z,16.05
2023-03-15T13:17:42.592Z,16.04
2023-03-15T13:22:18.303Z,16.04
2023-03-15T13:26:33.223Z,16.03
2023-03-15T13:30:47.208Z,16.02
2023-03-15T13:34:49.987Z,16.02
2023-03-15T13:38:54.843Z,16.01
2023-03-15T13:43:00.940Z,16.01
2023-03-15T13:47:02.650Z,16.00
2023-03-15T13:51:08.339Z,16.00
2023-03-15T13:55:14.502Z,16.00
2023-03-15T13:59:17.690Z,15.99
2023-03-15T14:03:23.050Z,15.99
2023-03-15T14:07:35.619Z,15.99
2023-03-15T14:11:40.943Z,15.98
2023-03-15T14:15:44.390Z,15.99
2023-03-15T14:19:56.887Z,16.00
2023-03-15T14:24:07.044Z,16.00
2023-03-15T14:28:15.263Z,16.00
2023-03-15T14:32:30.923Z,16.00
2023-03-15T14:36:44.710Z,16.00
2023-03-15T14:40:50.106Z,16.00
2023-03-15T14:44:52.362Z,15.99
2023-03-15T14:48:54.116Z,16.00
2023-03-15T14:52:56.811Z,15.99
2023-03-15T14:56:58.570Z,15.99
2023-03-15T15:01:02.860Z,15.98
2023-03-15T15:05:34.490Z,15.98
2023-03-15T15:09:38.451Z,15.98
2023-03-15T15:13:42.540Z,15.98
2023-03-15T15:17:44.398Z,15.97
2023-03-15T15:21:46.239Z,15.97
2023-03-15T15:25:50.678Z,15.96
2023-03-15T15:29:52.477Z,15.97
2023-03-15T15:33:55.773Z,15.96
2023-03-15T15:37:57.665Z,15.96
2023-03-15T15:41:59.410Z,15.95
2023-03-15T15:46:02.015Z,15.95
2023-03-15T15:50:04.126Z,15.96
2023-03-15T15:54:06.164Z,15.98
2023-03-15T15:58:11.969Z,16.01
2023-03-15T16:02:22.334Z,16.04
2023-03-15T16:06:24.394Z,16.08
2023-03-15T16:10:36.032Z,16.10
2023-03-15T16:14:37.771Z,16.13
2023-03-15T16:18:39.481Z,16.16
2023-03-15T16:22:45.433Z,16.21
2023-03-15T16:26:48.429Z,16.23
2023-03-15T16:30:50.327Z,16.24
2023-03-15T16:34:53.451Z,16.26
2023-03-15T16:38:55.634Z,16.28
2023-03-15T16:42:57.715Z,16.30
2023-03-15T16:46:59.396Z,16.33
2023-03-15T16:51:01.065Z,16.32
2023-03-15T16:55:03.020Z,16.29
2023-03-15T16:59:04.973Z,16.26
2023-03-15T17:03:08.251Z,16.23
2023-03-15T17:07:11.737Z,16.21
2023-03-15T17:11:14.003Z,16.20
2023-03-15T17:15:20.387Z,16.19
2023-03-15T17:19:22.270Z,16.18
2023-03-15T17:23:24.494Z,16.16
2023-03-15T17:27:35.461Z,16.15
2023-03-15T17:31:37.898Z,16.15
2023-03-15T17:35:54.173Z,16.14
2023-03-15T17:39:56.914Z,16.12
2023-03-15T17:43:59.270Z,16.12
2023-03-15T17:48:02.110Z,16.10
2023-03-15T17:52:04.815Z,16.09
2023-03-15T17:56:07.436Z,16.09
2023-03-15T18:00:11.362Z,16.09
2023-03-15T18:04:13.873Z,16.08
2023-03-15T18:08:19.747Z,16.07
2023-03-15T18:12:22.376Z,16.06
2023-03-15T18:16:24.675Z,16.05
2023-03-15T18:20:28.212Z,16.05
2023-03-15T18:24:32.035Z,16.04
2023-03-15T18:28:34.099Z,16.02
2023-03-15T18:32:35.945Z,16.02
2023-03-15T18:36:37.724Z,16.02
2023-03-15T18:40:39.600Z,16.01
2023-03-15T18:44:41.457Z,16.00
2023-03-15T18:48:45.456Z,16.00
2023-03-15T18:52:47.536Z,15.99
2023-03-15T18:56:49.659Z,15.99
2023-03-15T19:00:51.496Z,15.97
2023-03-15T19:04:53.573Z,15.98
2023-03-15T19:08:55.481Z,15.96
2023-03-15T19:12:57.201Z,15.96
2023-03-15T19:16:59.877Z,15.96
2023-03-15T19:21:02.648Z,15.95
2023-03-15T19:25:06.157Z,15.95
2023-03-15T19:29:07.968Z,15.94
2023-03-15T19:33:10.196Z,15.94
2023-03-15T19:37:12.048Z,15.93
2023-03-15T19:41:14.565Z,15.93
2023-03-15T19:45:17.673Z,15.92
2023-03-15T19:49:19.664Z,15.92
2023-03-15T19:53:21.474Z,15.91
2023-03-15T19:57:23.253Z,15.91
2023-03-15T20:01:25.071Z,15.91
2023-03-15T20:05:26.933Z,15.90
2023-03-15T20:09:29.293Z,15.89
2023-03-15T20:13:31.750Z,15.89
2023-03-15T20:17:33.428Z,15.88
2023-03-15T20:21:35.992Z,15.88
2023-03-15T20:25:37.693Z,15.88
2023-03-15T20:29:39.410Z,15.88
2023-03-15T20:33:41.881Z,15.87
2023-03-15T20:37:43.715Z,15.87
2023-03-15T20:41:45.457Z,15.86
2023-03-15T20:45:47.336Z,15.86
2023-03-15T20:49:49.063Z,15.86
2023-03-15T20:53:51.065Z,15.86
2023-03-15T20:57:53.546Z,15.86
2023-03-15T21:01:55.846Z,15.88
2023-03-15T21:05:57.943Z,15.88
2023-03-15T21:10:00.552Z,15.89
2023-03-15T21:14:02.789Z,15.89
2023-03-15T21:18:04.882Z,15.89
2023-03-15T21:22:07.181Z,15.91
2023-03-15T21:26:11.449Z,15.92
2023-03-15T21:30:14.326Z,15.92
2023-03-15T21:34:16.421Z,15.94
2023-03-15T21:38:18.568Z,15.97
2023-03-15T21:42:20.878Z,16.00
2023-03-15T21:46:24.103Z,16.02
2023-03-15T21:50:26.877Z,16.04
2023-03-15T21:54:29.509Z,16.06
2023-03-15T21:58:32.024Z,16.09
2023-03-15T22:02:33.801Z,16.13
2023-03-15T22:06:35.567Z,16.16
2023-03-15T22:10:37.356Z,16.20
2023-03-15T22:14:40.117Z,16.24
2023-03-15T22:18:41.876Z,16.30
2023-03-15T22:22:45.313Z,16.35
2023-03-15T22:26:47.058Z,16.39
2023-03-15T22:30:50.086Z,16.43
2023-03-15T22:34:51.781Z,16.94
2023-03-15T22:38:53.508Z,17.55
2023-03-15T22:42:57.308Z,17.93
2023-03-15T22:46:59.065Z,17.82
2023-03-15T22:51:03.072Z,17.77
2023-03-15T22:55:06.486Z,18.27
2023-03-15T22:59:08.275Z,18.58
2023-03-15T23:03:09.997Z,18.81
2023-03-15T23:07:12.597Z,19.04
2023-03-15T23:11:14.487Z,19.21
2023-03-15T23:15:16.265Z,19.38
2023-03-15T23:19:17.992Z,19.53
2023-03-15T23:23:19.912Z,19.66
2023-03-15T23:27:26.166Z,19.79
2023-03-15T23:31:28.103Z,19.88
2023-03-15T23:35:31.259Z,19.95
2023-03-15T23:39:33.069Z,20.09
2023-03-15T23:43:34.847Z,20.19
2023-03-15T23:47:36.641Z,20.10
2023-03-15T23:51:38.846Z,20.18
2023-03-15T23:55:41.343Z,20.24
2023-03-15T23:59:43.531Z,20.33
